Terminal Aerodrome Forecast
Issued by NWS

Home | Current Version | Previous Version | Text Only | Print | Product List | Glossary Off
Versions: 1 2 3 4 5 6 7 8 9 10 11 12 13 14 15 16 17 18 19 20 21 22 23 24 25 26 27 28 29 30 31 32 33 34 35 36 37 38 39 40 41 42 43 44 45 46 47 48 49 50
248 FTUS41 KBOX 172051 AAA TAFHYA TAF AMD KHYA 172051Z 1721/1818 15006KT P6SM OVC200 FM180200 15010G20KT 1SM -SN OVC020 FM180400 13010G21KT 1/2SM SN OVC010 FM180700 12008KT 1/2SM SNRA OVC008 FM180900 08006KT 1SM -RASN OVC008 FM181100 31007KT P6SM VCSH OVC008 FM181300 31011G21KT P6SM BKN020 FM181400 31013G26KT P6SM SCT110=

USA.gov is the U.S. government's official web portal to all federal, state and local government web resources and services.